Terminal Aerodrome Forecast
Issued by NWS

Home | Current Version | Previous Version | Text Only | Print | Product List | Glossary On
Versions: 1 2 3 4 5 6 7 8 9 10 11 12 13 14 15 16 17 18 19 20 21 22 23 24 25 26
000
FTUS45 KGJT 242343
TAFTEX
TAF
KTEX 242343Z 2500/2524 28008KT P6SM OVC050
     FM250200 VRB03KT P6SM VCSH OVC045
      TEMPO 2502/2504 5SM -SHSN BR SCT020 OVC040
     FM250600 14005KT P6SM SCT040
     FM250900 14005KT P6SM SKC
     FM252000 34007KT P6SM SKC=

USA.gov is the U.S. government's official web portal to all federal, state and local government web resources and services.